EmailTwitter


Surface observations / Quebec / CYHU (71371)

Regions: Quebec | Canada | USA | Europe | France | UK | Elsewhere
Station
Display
Info & Location for CYHU (71371) | Help decoding METAR

Weather Conditions observed on 2017/05/26 at 00:18 UTC at MONTREAL/ST HUBE, QB (CYHU)

Sky conditions: overcast.

Obstruction(s) to Vision: moderate rain and fog.

Temperature: 13.0 Celsius.

Dewpoint: 12.0 Celsius.

Relative Humidity: 94%

Winds: East at 17 km/h or 9 knots.

Mean Sea level Pressure: 100.70 kilopascals.

Altimeter Setting (QNH): 100.68 kilopascals or 29.73 inches of mercury.

Horizontal visibility: 4.00 statute miles or 6.40 kilometers.

Height of the Ceiling: 1463 metres ( 4800 feet ).

Coded METAR:

CYHU 260018Z AUTO 08009KT 4SM RA BR OVC048 13/12 A2973 RMK SLP070 DENSITY ALT

100FT=